sensor_id;sensor_type;location;lat;lon;timestamp;pressure;altitude;pressure_sealevel;temperature;humidity
37170;BME280;23062;13.952;100.608;2023-03-04T00:01:43;1017.32;;;28.71;48.95
37170;BME280;23062;13.952;100.608;2023-03-04T00:06:08;1017.49;;;28.81;49.02
37170;BME280;23062;13.952;100.608;2023-03-04T00:10:42;1017.50;;;28.68;49.25
37170;BME280;23062;13.952;100.608;2023-03-04T00:15:08;1017.56;;;28.99;48.56
37170;BME280;23062;13.952;100.608;2023-03-04T00:19:34;1017.60;;;29.16;48.36
37170;BME280;23062;13.952;100.608;2023-03-04T00:24:00;1017.68;;;29.26;48.36
37170;BME280;23062;13.952;100.608;2023-03-04T00:28:26;1017.70;;;29.33;48.12
37170;BME280;23062;13.952;100.608;2023-03-04T00:32:52;1017.72;;;29.37;47.68
37170;BME280;23062;13.952;100.608;2023-03-04T00:37:18;1017.84;;;29.36;47.07
37170;BME280;23062;13.952;100.608;2023-03-04T00:41:43;1017.87;;;29.36;46.70
37170;BME280;23062;13.952;100.608;2023-03-04T00:46:09;1017.98;;;29.39;46.63
37170;BME280;23062;13.952;100.608;2023-03-04T00:50:37;1018.06;;;29.43;46.31
37170;BME280;23062;13.952;100.608;2023-03-04T00:55:03;1018.10;;;29.41;45.39
37170;BME280;23062;13.952;100.608;2023-03-04T00:59:35;1018.15;;;29.45;45.29
37170;BME280;23062;13.952;100.608;2023-03-04T01:04:00;1018.22;;;29.44;45.09
37170;BME280;23062;13.952;100.608;2023-03-04T01:08:26;1018.36;;;29.17;44.17
37170;BME280;23062;13.952;100.608;2023-03-04T01:12:54;1018.42;;;29.19;43.98
37170;BME280;23062;13.952;100.608;2023-03-04T01:17:20;1018.51;;;29.16;43.65
37170;BME280;23062;13.952;100.608;2023-03-04T01:21:45;1018.57;;;29.08;43.13
37170;BME280;23062;13.952;100.608;2023-03-04T01:26:11;1018.59;;;28.95;43.17
37170;BME280;23062;13.952;100.608;2023-03-04T01:30:41;1018.62;;;29.04;43.51
37170;BME280;23062;13.952;100.608;2023-03-04T01:35:07;1018.75;;;28.98;43.35
37170;BME280;23062;13.952;100.608;2023-03-04T01:39:32;1018.78;;;28.96;43.17
37170;BME280;23062;13.952;100.608;2023-03-04T01:43:59;1018.88;;;28.93;42.86
37170;BME280;23062;13.952;100.608;2023-03-04T01:48:28;1019.00;;;29.01;42.89
37170;BME280;23062;13.952;100.608;2023-03-04T01:52:54;1019.02;;;29.00;43.32
37170;BME280;23062;13.952;100.608;2023-03-04T01:57:21;1019.10;;;29.06;43.29
37170;BME280;23062;13.952;100.608;2023-03-04T02:01:49;1019.18;;;29.08;43.52
37170;BME280;23062;13.952;100.608;2023-03-04T02:06:16;1019.24;;;29.15;43.30
37170;BME280;23062;13.952;100.608;2023-03-04T02:10:42;1019.29;;;29.10;43.06
37170;BME280;23062;13.952;100.608;2023-03-04T02:15:09;1019.34;;;29.09;42.90
37170;BME280;23062;13.952;100.608;2023-03-04T02:19:50;1019.34;;;29.09;42.97
37170;BME280;23062;13.952;100.608;2023-03-04T02:29:05;1019.45;;;29.15;42.93
37170;BME280;23062;13.952;100.608;2023-03-04T02:33:31;1019.51;;;29.25;42.92
37170;BME280;23062;13.952;100.608;2023-03-04T02:37:57;1019.62;;;29.32;42.97
37170;BME280;23062;13.952;100.608;2023-03-04T02:42:26;1019.60;;;29.33;42.88
37170;BME280;23062;13.952;100.608;2023-03-04T02:46:52;1019.57;;;29.40;42.92
37170;BME280;23062;13.952;100.608;2023-03-04T02:51:18;1019.64;;;29.51;42.66
37170;BME280;23062;13.952;100.608;2023-03-04T02:55:43;1019.64;;;29.51;41.97
37170;BME280;23062;13.952;100.608;2023-03-04T03:00:09;1019.61;;;29.62;42.08
37170;BME280;23062;13.952;100.608;2023-03-04T03:04:37;1019.54;;;29.60;42.12
37170;BME280;23062;13.952;100.608;2023-03-04T03:09:04;1019.56;;;29.66;41.92
37170;BME280;23062;13.952;100.608;2023-03-04T03:13:32;1019.57;;;29.69;41.94
37170;BME280;23062;13.952;100.608;2023-03-04T03:18:04;1019.56;;;29.73;41.29
37170;BME280;23062;13.952;100.608;2023-03-04T03:22:29;1019.58;;;29.73;41.25
37170;BME280;23062;13.952;100.608;2023-03-04T03:26:55;1019.55;;;29.85;41.33
37170;BME280;23062;13.952;100.608;2023-03-04T03:31:21;1019.53;;;29.95;41.11
37170;BME280;23062;13.952;100.608;2023-03-04T03:35:47;1019.56;;;30.03;40.32
37170;BME280;23062;13.952;100.608;2023-03-04T03:40:14;1019.52;;;30.00;40.29
37170;BME280;23062;13.952;100.608;2023-03-04T03:44:40;1019.39;;;30.06;40.34
37170;BME280;23062;13.952;100.608;2023-03-04T03:49:11;1019.37;;;30.11;40.53
37170;BME280;23062;13.952;100.608;2023-03-04T03:53:37;1019.29;;;30.14;40.44
37170;BME280;23062;13.952;100.608;2023-03-04T03:58:02;1019.30;;;30.15;39.81
37170;BME280;23062;13.952;100.608;2023-03-04T04:02:27;1019.21;;;30.21;39.71
37170;BME280;23062;13.952;100.608;2023-03-04T04:06:53;1019.09;;;30.25;39.63
37170;BME280;23062;13.952;100.608;2023-03-04T04:11:20;1019.04;;;30.20;39.13
37170;BME280;23062;13.952;100.608;2023-03-04T04:15:45;1018.92;;;30.06;39.04
37170;BME280;23062;13.952;100.608;2023-03-04T04:20:11;1018.81;;;30.23;39.40
37170;BME280;23062;13.952;100.608;2023-03-04T04:24:37;1018.65;;;30.33;39.39
37170;BME280;23062;13.952;100.608;2023-03-04T04:29:08;1018.64;;;30.42;39.59
37170;BME280;23062;13.952;100.608;2023-03-04T04:33:36;1018.62;;;30.42;39.43
37170;BME280;23062;13.952;100.608;2023-03-04T04:38:02;1018.54;;;30.42;39.95
37170;BME280;23062;13.952;100.608;2023-03-04T04:42:27;1018.45;;;30.43;39.34
37170;BME280;23062;13.952;100.608;2023-03-04T04:46:53;1018.32;;;30.42;38.73
37170;BME280;23062;13.952;100.608;2023-03-04T04:51:19;1018.25;;;30.43;38.72
37170;BME280;23062;13.952;100.608;2023-03-04T04:55:46;1018.09;;;30.50;38.55
37170;BME280;23062;13.952;100.608;2023-03-04T05:00:15;1018.02;;;30.61;38.22
37170;BME280;23062;13.952;100.608;2023-03-04T05:04:41;1017.89;;;30.66;37.81
37170;BME280;23062;13.952;100.608;2023-03-04T05:09:07;1017.83;;;30.70;37.89
37170;BME280;23062;13.952;100.608;2023-03-04T05:13:35;1017.73;;;30.80;37.33
37170;BME280;23062;13.952;100.608;2023-03-04T05:18:03;1017.61;;;30.81;37.00
37170;BME280;23062;13.952;100.608;2023-03-04T05:22:28;1017.51;;;30.82;37.40
37170;BME280;23062;13.952;100.608;2023-03-04T05:26:55;1017.46;;;30.87;37.52
37170;BME280;23062;13.952;100.608;2023-03-04T05:31:24;1017.36;;;30.88;37.19
37170;BME280;23062;13.952;100.608;2023-03-04T05:35:55;1017.22;;;30.83;39.04
37170;BME280;23062;13.952;100.608;2023-03-04T05:40:20;1017.17;;;30.80;38.42
37170;BME280;23062;13.952;100.608;2023-03-04T05:44:49;1017.06;;;30.73;38.95
37170;BME280;23062;13.952;100.608;2023-03-04T05:49:18;1016.93;;;30.65;39.55
37170;BME280;23062;13.952;100.608;2023-03-04T05:53:47;1016.87;;;30.84;38.50
37170;BME280;23062;13.952;100.608;2023-03-04T05:58:13;1016.74;;;30.79;38.88
37170;BME280;23062;13.952;100.608;2023-03-04T06:02:40;1016.72;;;30.85;38.46
37170;BME280;23062;13.952;100.608;2023-03-04T06:07:06;1016.53;;;30.80;38.68
37170;BME280;23062;13.952;100.608;2023-03-04T06:11:33;1016.49;;;30.77;39.01
37170;BME280;23062;13.952;100.608;2023-03-04T06:15:59;1016.36;;;30.80;38.89
37170;BME280;23062;13.952;100.608;2023-03-04T06:20:25;1016.25;;;31.02;37.39
37170;BME280;23062;13.952;100.608;2023-03-04T06:24:51;1016.24;;;31.09;36.80
37170;BME280;23062;13.952;100.608;2023-03-04T06:29:16;1016.08;;;31.02;37.13
37170;BME280;23062;13.952;100.608;2023-03-04T06:33:42;1015.93;;;30.97;37.34
37170;BME280;23062;13.952;100.608;2023-03-04T06:38:07;1015.91;;;31.01;37.47
37170;BME280;23062;13.952;100.608;2023-03-04T06:42:33;1015.83;;;31.14;36.66
37170;BME280;23062;13.952;100.608;2023-03-04T06:46:59;1015.78;;;31.06;37.20
37170;BME280;23062;13.952;100.608;2023-03-04T06:51:25;1015.67;;;31.22;36.70
37170;BME280;23062;13.952;100.608;2023-03-04T06:55:50;1015.60;;;31.16;37.05
37170;BME280;23062;13.952;100.608;2023-03-04T07:00:17;1015.44;;;31.14;37.07
37170;BME280;23062;13.952;100.608;2023-03-04T07:04:45;1015.32;;;31.23;37.01
37170;BME280;23062;13.952;100.608;2023-03-04T07:09:11;1015.34;;;31.31;36.09
37170;BME280;23062;13.952;100.608;2023-03-04T07:13:37;1015.21;;;31.34;36.21
37170;BME280;23062;13.952;100.608;2023-03-04T07:18:05;1015.10;;;31.23;36.50
37170;BME280;23062;13.952;100.608;2023-03-04T07:22:32;1014.96;;;31.17;36.84
37170;BME280;23062;13.952;100.608;2023-03-04T07:27:02;1014.88;;;31.26;36.38
37170;BME280;23062;13.952;100.608;2023-03-04T07:31:32;1014.90;;;31.33;36.27
37170;BME280;23062;13.952;100.608;2023-03-04T07:36:01;1014.77;;;31.36;36.05
37170;BME280;23062;13.952;100.608;2023-03-04T07:40:29;1014.71;;;31.27;36.16
37170;BME280;23062;13.952;100.608;2023-03-04T07:44:54;1014.59;;;31.27;36.22
37170;BME280;23062;13.952;100.608;2023-03-04T07:49:23;1014.53;;;31.18;36.71
37170;BME280;23062;13.952;100.608;2023-03-04T07:53:50;1014.48;;;31.18;36.96
37170;BME280;23062;13.952;100.608;2023-03-04T07:58:16;1014.43;;;31.20;36.81
37170;BME280;23062;13.952;100.608;2023-03-04T08:02:42;1014.41;;;31.21;36.86
37170;BME280;23062;13.952;100.608;2023-03-04T08:07:09;1014.23;;;31.23;36.72
37170;BME280;23062;13.952;100.608;2023-03-04T08:11:36;1014.16;;;31.17;37.09
37170;BME280;23062;13.952;100.608;2023-03-04T08:16:02;1014.12;;;31.27;36.81
37170;BME280;23062;13.952;100.608;2023-03-04T08:20:29;1013.98;;;31.31;36.67
37170;BME280;23062;13.952;100.608;2023-03-04T08:24:55;1013.98;;;31.26;36.88
37170;BME280;23062;13.952;100.608;2023-03-04T08:29:22;1013.92;;;31.19;37.30
37170;BME280;23062;13.952;100.608;2023-03-04T08:33:48;1013.80;;;31.21;37.25
37170;BME280;23062;13.952;100.608;2023-03-04T08:38:14;1013.71;;;31.27;37.29
37170;BME280;23062;13.952;100.608;2023-03-04T08:42:39;1013.72;;;31.32;37.50
37170;BME280;23062;13.952;100.608;2023-03-04T08:47:05;1013.72;;;31.37;37.56
37170;BME280;23062;13.952;100.608;2023-03-04T08:51:32;1013.67;;;31.44;36.86
37170;BME280;23062;13.952;100.608;2023-03-04T08:55:58;1013.63;;;31.41;36.77
37170;BME280;23062;13.952;100.608;2023-03-04T09:00:23;1013.62;;;31.30;37.10
37170;BME280;23062;13.952;100.608;2023-03-04T09:04:49;1013.59;;;31.26;37.15
37170;BME280;23062;13.952;100.608;2023-03-04T09:09:14;1013.52;;;31.26;37.09
37170;BME280;23062;13.952;100.608;2023-03-04T09:13:40;1013.51;;;31.27;36.84
37170;BME280;23062;13.952;100.608;2023-03-04T09:18:10;1013.47;;;31.23;37.20
37170;BME280;23062;13.952;100.608;2023-03-04T09:22:40;1013.55;;;31.23;37.15
37170;BME280;23062;13.952;100.608;2023-03-04T09:27:07;1013.57;;;31.27;36.83
37170;BME280;23062;13.952;100.608;2023-03-04T09:31:33;1013.58;;;31.29;36.86
37170;BME280;23062;13.952;100.608;2023-03-04T09:36:02;1013.59;;;31.26;37.09
37170;BME280;23062;13.952;100.608;2023-03-04T09:40:36;1013.56;;;31.28;36.93
37170;BME280;23062;13.952;100.608;2023-03-04T09:44:58;1013.61;;;31.38;36.34
37170;BME280;23062;13.952;100.608;2023-03-04T09:49:27;1013.60;;;31.42;35.96
37170;BME280;23062;13.952;100.608;2023-03-04T09:54:01;1013.65;;;31.29;36.36
37170;BME280;23062;13.952;100.608;2023-03-04T10:03:23;1013.69;;;31.19;38.22
37170;BME280;23062;13.952;100.608;2023-03-04T10:07:54;1013.70;;;31.17;39.31
37170;BME280;23062;13.952;100.608;2023-03-04T10:12:21;1013.70;;;31.13;39.67
37170;BME280;23062;13.952;100.608;2023-03-04T10:21:35;1013.73;;;31.14;39.97
37170;BME280;23062;13.952;100.608;2023-03-04T10:26:12;1013.77;;;31.15;39.52
37170;BME280;23062;13.952;100.608;2023-03-04T10:30:43;1013.81;;;31.12;39.63
37170;BME280;23062;13.952;100.608;2023-03-04T10:35:11;1013.85;;;31.12;39.80
37170;BME280;23062;13.952;100.608;2023-03-04T10:39:41;1013.87;;;31.09;40.08
37170;BME280;23062;13.952;100.608;2023-03-04T10:44:15;1013.92;;;31.08;40.55
37170;BME280;23062;13.952;100.608;2023-03-04T10:48:42;1013.97;;;31.10;41.27
37170;BME280;23062;13.952;100.608;2023-03-04T10:53:15;1013.98;;;31.08;41.86
37170;BME280;23062;13.952;100.608;2023-03-04T10:57:40;1014.00;;;31.06;42.37
37170;BME280;23062;13.952;100.608;2023-03-04T11:02:25;1014.03;;;31.04;42.61
37170;BME280;23062;13.952;100.608;2023-03-04T11:06:53;1014.01;;;31.07;42.77
37170;BME280;23062;13.952;100.608;2023-03-04T11:16:18;1014.07;;;31.27;42.12
37170;BME280;23062;13.952;100.608;2023-03-04T11:20:38;1014.11;;;31.28;42.12
37170;BME280;23062;13.952;100.608;2023-03-04T11:25:19;1014.17;;;31.26;42.26
37170;BME280;23062;13.952;100.608;2023-03-04T11:29:47;1014.20;;;31.28;42.35
37170;BME280;23062;13.952;100.608;2023-03-04T11:38:58;1014.37;;;31.28;42.41
37170;BME280;23062;13.952;100.608;2023-03-04T11:43:38;1014.43;;;31.27;42.75
37170;BME280;23062;13.952;100.608;2023-03-04T11:48:18;1014.52;;;31.27;43.71
37170;BME280;23062;13.952;100.608;2023-03-04T11:52:49;1014.59;;;31.26;43.66
37170;BME280;23062;13.952;100.608;2023-03-04T12:07:02;1014.69;;;31.22;43.97
37170;BME280;23062;13.952;100.608;2023-03-04T12:35:23;1015.15;;;31.17;44.44
37170;BME280;23062;13.952;100.608;2023-03-04T12:54:23;1015.44;;;31.14;44.83
37170;BME280;23062;13.952;100.608;2023-03-04T12:58:53;1015.45;;;31.12;45.38
37170;BME280;23062;13.952;100.608;2023-03-04T13:03:23;1015.50;;;31.11;45.58
37170;BME280;23062;13.952;100.608;2023-03-04T13:12:59;1015.61;;;31.10;45.30
37170;BME280;23062;13.952;100.608;2023-03-04T13:22:44;1015.76;;;31.14;45.42
37170;BME280;23062;13.952;100.608;2023-03-04T13:27:43;1015.87;;;31.14;45.34
37170;BME280;23062;13.952;100.608;2023-03-04T13:37:11;1016.00;;;31.14;45.21
37170;BME280;23062;13.952;100.608;2023-03-04T13:41:53;1016.12;;;31.15;45.21
37170;BME280;23062;13.952;100.608;2023-03-04T13:46:29;1016.14;;;31.13;45.50
37170;BME280;23062;13.952;100.608;2023-03-04T13:51:03;1016.20;;;31.12;45.42
37170;BME280;23062;13.952;100.608;2023-03-04T13:55:57;1016.27;;;31.12;45.42
37170;BME280;23062;13.952;100.608;2023-03-04T14:00:18;1016.32;;;31.12;45.23
37170;BME280;23062;13.952;100.608;2023-03-04T14:04:58;1016.40;;;31.11;45.29
37170;BME280;23062;13.952;100.608;2023-03-04T14:09:29;1016.44;;;31.10;45.24
37170;BME280;23062;13.952;100.608;2023-03-04T14:13:59;1016.47;;;31.10;45.29
37170;BME280;23062;13.952;100.608;2023-03-04T14:18:26;1016.52;;;31.08;45.43
37170;BME280;23062;13.952;100.608;2023-03-04T14:22:53;1016.52;;;31.08;45.49
37170;BME280;23062;13.952;100.608;2023-03-04T14:27:20;1016.54;;;31.06;45.43
37170;BME280;23062;13.952;100.608;2023-03-04T14:31:50;1016.67;;;31.07;45.50
37170;BME280;23062;13.952;100.608;2023-03-04T14:36:19;1016.74;;;31.05;45.42
37170;BME280;23062;13.952;100.608;2023-03-04T14:40:47;1016.75;;;31.05;45.48
37170;BME280;23062;13.952;100.608;2023-03-04T14:45:16;1016.75;;;31.05;45.48
37170;BME280;23062;13.952;100.608;2023-03-04T14:49:42;1016.75;;;31.04;45.52
37170;BME280;23062;13.952;100.608;2023-03-04T14:54:25;1016.80;;;31.03;45.52
37170;BME280;23062;13.952;100.608;2023-03-04T14:58:56;1016.82;;;31.03;45.49
37170;BME280;23062;13.952;100.608;2023-03-04T15:03:27;1016.84;;;31.02;45.51
37170;BME280;23062;13.952;100.608;2023-03-04T15:07:58;1016.90;;;31.02;45.54
37170;BME280;23062;13.952;100.608;2023-03-04T15:12:32;1016.93;;;31.00;45.49
37170;BME280;23062;13.952;100.608;2023-03-04T15:17:00;1016.94;;;31.00;45.51
37170;BME280;23062;13.952;100.608;2023-03-04T15:21:40;1016.99;;;30.98;45.50
37170;BME280;23062;13.952;100.608;2023-03-04T15:26:09;1017.02;;;30.99;45.48
37170;BME280;23062;13.952;100.608;2023-03-04T15:30:36;1017.03;;;30.98;45.48
37170;BME280;23062;13.952;100.608;2023-03-04T15:35:04;1017.05;;;30.98;45.44
37170;BME280;23062;13.952;100.608;2023-03-04T15:39:29;1017.12;;;30.97;45.48
37170;BME280;23062;13.952;100.608;2023-03-04T15:43:55;1017.19;;;30.97;45.47
37170;BME280;23062;13.952;100.608;2023-03-04T15:48:20;1017.20;;;30.96;45.50
37170;BME280;23062;13.952;100.608;2023-03-04T15:52:47;1017.17;;;30.96;45.44
37170;BME280;23062;13.952;100.608;2023-03-04T15:57:20;1017.15;;;30.95;45.46
37170;BME280;23062;13.952;100.608;2023-03-04T16:01:46;1017.13;;;30.95;45.38
37170;BME280;23062;13.952;100.608;2023-03-04T16:06:15;1017.12;;;30.94;45.39
37170;BME280;23062;13.952;100.608;2023-03-04T16:10:50;1017.08;;;30.93;45.38
37170;BME280;23062;13.952;100.608;2023-03-04T16:15:23;1017.09;;;30.93;45.33
37170;BME280;23062;13.952;100.608;2023-03-04T16:19:45;1017.09;;;30.92;45.20
37170;BME280;23062;13.952;100.608;2023-03-04T16:24:15;1017.12;;;30.92;45.24
37170;BME280;23062;13.952;100.608;2023-03-04T16:28:45;1017.12;;;30.91;45.19
37170;BME280;23062;13.952;100.608;2023-03-04T16:33:10;1017.09;;;30.90;45.21
37170;BME280;23062;13.952;100.608;2023-03-04T16:37:49;1017.04;;;30.90;45.23
37170;BME280;23062;13.952;100.608;2023-03-04T16:42:15;1017.05;;;30.89;45.24
37170;BME280;23062;13.952;100.608;2023-03-04T16:46:42;1017.00;;;30.89;45.25
37170;BME280;23062;13.952;100.608;2023-03-04T16:51:17;1016.98;;;30.88;45.28
37170;BME280;23062;13.952;100.608;2023-03-04T16:55:43;1016.95;;;30.87;45.29
37170;BME280;23062;13.952;100.608;2023-03-04T17:00:13;1016.94;;;30.87;45.34
37170;BME280;23062;13.952;100.608;2023-03-04T17:04:40;1016.90;;;30.87;45.40
37170;BME280;23062;13.952;100.608;2023-03-04T17:09:09;1016.81;;;30.85;45.47
37170;BME280;23062;13.952;100.608;2023-03-04T17:13:35;1016.73;;;30.85;45.54
37170;BME280;23062;13.952;100.608;2023-03-04T17:18:03;1016.63;;;30.84;45.61
37170;BME280;23062;13.952;100.608;2023-03-04T17:22:29;1016.62;;;30.84;45.64
37170;BME280;23062;13.952;100.608;2023-03-04T17:26:59;1016.51;;;30.82;45.75
37170;BME280;23062;13.952;100.608;2023-03-04T17:31:28;1016.41;;;30.82;45.70
37170;BME280;23062;13.952;100.608;2023-03-04T17:35:53;1016.36;;;30.81;45.72
37170;BME280;23062;13.952;100.608;2023-03-04T17:40:20;1016.31;;;30.80;45.72
37170;BME280;23062;13.952;100.608;2023-03-04T17:44:46;1016.28;;;30.80;45.77
37170;BME280;23062;13.952;100.608;2023-03-04T17:49:12;1016.26;;;30.79;45.75
37170;BME280;23062;13.952;100.608;2023-03-04T17:53:37;1016.23;;;30.78;45.80
37170;BME280;23062;13.952;100.608;2023-03-04T17:58:06;1016.15;;;30.77;45.86
37170;BME280;23062;13.952;100.608;2023-03-04T18:02:31;1016.10;;;30.76;45.86
37170;BME280;23062;13.952;100.608;2023-03-04T18:06:59;1016.11;;;30.76;45.84
37170;BME280;23062;13.952;100.608;2023-03-04T18:11:26;1016.11;;;30.75;45.88
37170;BME280;23062;13.952;100.608;2023-03-04T18:15:52;1016.07;;;30.75;45.81
37170;BME280;23062;13.952;100.608;2023-03-04T18:20:18;1015.98;;;30.74;45.92
37170;BME280;23062;13.952;100.608;2023-03-04T18:24:49;1015.91;;;30.73;46.07
37170;BME280;23062;13.952;100.608;2023-03-04T18:29:14;1015.83;;;30.72;46.18
37170;BME280;23062;13.952;100.608;2023-03-04T18:33:41;1015.79;;;30.72;46.24
37170;BME280;23062;13.952;100.608;2023-03-04T18:38:06;1015.82;;;30.70;46.25
37170;BME280;23062;13.952;100.608;2023-03-04T18:42:32;1015.75;;;30.71;46.26
37170;BME280;23062;13.952;100.608;2023-03-04T18:47:01;1015.78;;;30.70;46.25
37170;BME280;23062;13.952;100.608;2023-03-04T18:51:29;1015.78;;;30.69;46.35
37170;BME280;23062;13.952;100.608;2023-03-04T18:55:57;1015.73;;;30.68;46.27
37170;BME280;23062;13.952;100.608;2023-03-04T19:00:27;1015.69;;;30.67;46.31
37170;BME280;23062;13.952;100.608;2023-03-04T19:05:05;1015.66;;;30.66;46.35
37170;BME280;23062;13.952;100.608;2023-03-04T19:09:27;1015.59;;;30.66;46.36
37170;BME280;23062;13.952;100.608;2023-03-04T19:13:59;1015.53;;;30.65;46.39
37170;BME280;23062;13.952;100.608;2023-03-04T19:18:26;1015.48;;;30.64;46.40
37170;BME280;23062;13.952;100.608;2023-03-04T19:22:53;1015.48;;;30.63;46.43
37170;BME280;23062;13.952;100.608;2023-03-04T19:27:18;1015.44;;;30.62;46.45
37170;BME280;23062;13.952;100.608;2023-03-04T19:31:44;1015.36;;;30.62;46.58
37170;BME280;23062;13.952;100.608;2023-03-04T19:36:10;1015.32;;;30.62;46.49
37170;BME280;23062;13.952;100.608;2023-03-04T19:40:37;1015.31;;;30.61;46.58
37170;BME280;23062;13.952;100.608;2023-03-04T19:45:06;1015.31;;;30.60;46.57
37170;BME280;23062;13.952;100.608;2023-03-04T19:49:35;1015.29;;;30.60;46.58
37170;BME280;23062;13.952;100.608;2023-03-04T19:54:02;1015.25;;;30.58;46.65
37170;BME280;23062;13.952;100.608;2023-03-04T19:58:30;1015.19;;;30.57;46.72
37170;BME280;23062;13.952;100.608;2023-03-04T20:03:02;1015.14;;;30.56;46.81
37170;BME280;23062;13.952;100.608;2023-03-04T20:07:34;1015.10;;;30.55;46.86
37170;BME280;23062;13.952;100.608;2023-03-04T20:12:03;1015.03;;;30.54;46.92
37170;BME280;23062;13.952;100.608;2023-03-04T20:16:30;1015.05;;;30.53;46.95
37170;BME280;23062;13.952;100.608;2023-03-04T20:20:56;1015.01;;;30.53;47.01
37170;BME280;23062;13.952;100.608;2023-03-04T20:25:23;1014.94;;;30.53;47.12
37170;BME280;23062;13.952;100.608;2023-03-04T20:29:50;1014.92;;;30.52;47.14
37170;BME280;23062;13.952;100.608;2023-03-04T20:34:16;1014.94;;;30.51;47.24
37170;BME280;23062;13.952;100.608;2023-03-04T20:38:46;1014.97;;;30.50;47.29
37170;BME280;23062;13.952;100.608;2023-03-04T20:43:12;1014.99;;;30.49;47.21
37170;BME280;23062;13.952;100.608;2023-03-04T20:47:38;1015.00;;;30.49;47.24
37170;BME280;23062;13.952;100.608;2023-03-04T20:52:07;1015.00;;;30.48;47.14
37170;BME280;23062;13.952;100.608;2023-03-04T20:56:34;1015.01;;;30.48;47.00
37170;BME280;23062;13.952;100.608;2023-03-04T21:01:02;1015.00;;;30.46;46.95
37170;BME280;23062;13.952;100.608;2023-03-04T21:05:29;1014.98;;;30.47;46.79
37170;BME280;23062;13.952;100.608;2023-03-04T21:09:55;1015.02;;;30.45;46.73
37170;BME280;23062;13.952;100.608;2023-03-04T21:14:23;1015.04;;;30.45;46.62
37170;BME280;23062;13.952;100.608;2023-03-04T21:18:49;1015.01;;;30.43;46.60
37170;BME280;23062;13.952;100.608;2023-03-04T21:23:14;1014.99;;;30.43;46.60
37170;BME280;23062;13.952;100.608;2023-03-04T21:27:41;1015.04;;;30.30;46.61
37170;BME280;23062;13.952;100.608;2023-03-04T21:32:16;1014.99;;;30.09;46.77
37170;BME280;23062;13.952;100.608;2023-03-04T21:36:36;1015.01;;;29.92;47.32
37170;BME280;23062;13.952;100.608;2023-03-04T21:41:02;1015.00;;;29.89;46.97
37170;BME280;23062;13.952;100.608;2023-03-04T21:45:34;1015.05;;;29.80;47.00
37170;BME280;23062;13.952;100.608;2023-03-04T21:50:01;1015.07;;;29.71;47.09
37170;BME280;23062;13.952;100.608;2023-03-04T21:54:26;1015.00;;;29.71;47.22
37170;BME280;23062;13.952;100.608;2023-03-04T21:58:52;1015.11;;;29.71;47.26
37170;BME280;23062;13.952;100.608;2023-03-04T22:03:20;1015.04;;;29.66;50.00
37170;BME280;23062;13.952;100.608;2023-03-04T22:07:47;1015.09;;;29.66;50.30
37170;BME280;23062;13.952;100.608;2023-03-04T22:12:12;1015.17;;;29.45;49.36
37170;BME280;23062;13.952;100.608;2023-03-04T22:16:42;1015.22;;;29.52;49.38
37170;BME280;23062;13.952;100.608;2023-03-04T22:21:12;1015.28;;;29.69;49.66
37170;BME280;23062;13.952;100.608;2023-03-04T22:25:42;1015.34;;;29.76;49.92
37170;BME280;23062;13.952;100.608;2023-03-04T22:30:11;1015.44;;;29.54;51.06
37170;BME280;23062;13.952;100.608;2023-03-04T22:34:38;1015.50;;;29.39;51.75
37170;BME280;23062;13.952;100.608;2023-03-04T22:39:06;1015.59;;;29.20;51.75
37170;BME280;23062;13.952;100.608;2023-03-04T22:43:32;1015.70;;;29.18;51.72
37170;BME280;23062;13.952;100.608;2023-03-04T22:47:59;1015.78;;;29.18;51.33
37170;BME280;23062;13.952;100.608;2023-03-04T22:52:26;1015.83;;;29.17;51.36
37170;BME280;23062;13.952;100.608;2023-03-04T22:56:55;1015.90;;;29.11;51.37
37170;BME280;23062;13.952;100.608;2023-03-04T23:01:20;1015.97;;;29.07;51.54
37170;BME280;23062;13.952;100.608;2023-03-04T23:05:46;1016.00;;;29.03;51.53
37170;BME280;23062;13.952;100.608;2023-03-04T23:10:14;1016.12;;;28.97;51.87
37170;BME280;23062;13.952;100.608;2023-03-04T23:14:40;1016.19;;;28.89;51.64
37170;BME280;23062;13.952;100.608;2023-03-04T23:19:07;1016.23;;;28.90;52.41
37170;BME280;23062;13.952;100.608;2023-03-04T23:23:34;1016.35;;;28.82;54.25
37170;BME280;23062;13.952;100.608;2023-03-04T23:28:00;1016.43;;;28.66;54.09
37170;BME280;23062;13.952;100.608;2023-03-04T23:32:25;1016.53;;;28.73;53.87
37170;BME280;23062;13.952;100.608;2023-03-04T23:36:51;1016.65;;;28.70;53.54
37170;BME280;23062;13.952;100.608;2023-03-04T23:41:21;1016.67;;;28.65;52.55
37170;BME280;23062;13.952;100.608;2023-03-04T23:45:47;1016.78;;;28.67;52.14
37170;BME280;23062;13.952;100.608;2023-03-04T23:50:13;1016.87;;;28.69;52.29
37170;BME280;23062;13.952;100.608;2023-03-04T23:54:43;1016.92;;;28.56;51.40
37170;BME280;23062;13.952;100.608;2023-03-04T23:59:10;1016.96;;;28.30;54.41
